Time;durP1;ratioP1;P1;durP2;ratioP2;P2;SDS_P1;SDS_P2;PMS_P1;PMS_P2;Temp;Humidity;BMP_temperature;BMP_pressure;BME280_temperature;BME280_humidity;BME280_pressure;Samples;Min_cycle;Max_cycle;Signal;HPM_P1;HPM_P2
2021/04/13 00:00:37;;;;;;;2.33;0.70;;;;;;;;;;10306171;28;20044;-60
2021/04/13 00:05:38;;;;;;;2.13;0.83;;;;;;;;;;10308390;28;20510;-60
2021/04/13 00:10:39;;;;;;;1.45;0.60;;;;;;;;;;10310341;28;20119;-62
2021/04/13 00:15:48;;;;;;;1.95;0.82;;;;;;;;;;10314007;28;20738;-62
2021/04/13 00:20:49;;;;;;;0.30;0.30;;;;;;;;;;10304869;28;20371;-63
2021/04/13 00:25:53;;;;;;;0.50;0.50;;;;;;;;;;10305753;28;20041;-62
2021/04/13 00:30:52;;;;;;;0.50;0.50;;;;;;;;;;10308361;28;20120;-61
2021/04/13 00:36:10;;;;;;;2.63;1.10;;;;;;;;;;10320571;28;20064;-64
2021/04/13 00:41:08;;;;;;;0.95;0.50;;;;;;;;;;10316765;28;20051;-61
2021/04/13 00:46:06;;;;;;;0.23;0.23;;;;;;;;;;10313906;28;20045;-63
2021/04/13 00:51:06;;;;;;;1.40;0.50;;;;;;;;;;10312384;28;20076;-60
2021/04/13 00:56:06;;;;;;;4.47;0.40;;;;;;;;;;10330716;28;20033;-61
2021/04/13 01:01:07;;;;;;;1.40;0.40;;;;;;;;;;10318191;28;20052;-61
2021/04/13 01:06:17;;;;;;;0.63;0.55;;;;;;;;;;10314739;28;20045;-61
2021/04/13 01:11:16;;;;;;;2.40;1.35;;;;;;;;;;10316188;28;20549;-62
2021/04/13 01:16:14;;;;;;;0.98;0.43;;;;;;;;;;10305083;28;20029;-64
2021/04/13 01:21:34;;;;;;;0.43;0.40;;;;;;;;;;10310850;28;20528;-63
2021/04/13 01:26:36;;;;;;;2.25;0.50;;;;;;;;;;10323631;28;20037;-61
2021/04/13 01:31:51;;;;;;;2.90;1.00;;;;;;;;;;10318922;28;20406;-63
2021/04/13 01:37:02;;;;;;;2.15;0.93;;;;;;;;;;10318589;28;20056;-64
2021/04/13 01:42:00;;;;;;;2.72;0.65;;;;;;;;;;10316592;28;20393;-62
2021/04/13 01:46:59;;;;;;;1.27;0.70;;;;;;;;;;10315403;28;20707;-63
2021/04/13 01:51:57;;;;;;;1.85;0.50;;;;;;;;;;10305529;28;20068;-61
2021/04/13 01:57:04;;;;;;;1.80;0.52;;;;;;;;;;10324078;28;20522;-60
2021/04/13 02:02:05;;;;;;;4.32;0.63;;;;;;;;;;10315685;28;20126;-59
2021/04/13 02:07:08;;;;;;;0.40;0.40;;;;;;;;;;10320923;28;20032;-64
2021/04/13 02:12:09;;;;;;;2.83;0.65;;;;;;;;;;10316160;28;20043;-63
2021/04/13 02:17:08;;;;;;;2.75;1.23;;;;;;;;;;10315349;28;20068;-61
2021/04/13 02:22:07;;;;;;;0.40;0.40;;;;;;;;;;10309377;28;20517;-63
2021/04/13 02:27:09;;;;;;;4.75;0.80;;;;;;;;;;10310559;28;20113;-61
2021/04/13 02:32:15;;;;;;;5.28;0.90;;;;;;;;;;10317145;28;22119;-60
2021/04/13 02:37:18;;;;;;;0.85;0.57;;;;;;;;;;10315624;28;20460;-61
2021/04/13 02:42:17;;;;;;;1.38;0.57;;;;;;;;;;10310785;28;20133;-62
2021/04/13 02:47:15;;;;;;;0.65;0.30;;;;;;;;;;10309311;28;21083;-62
2021/04/13 02:52:17;;;;;;;1.57;1.00;;;;;;;;;;10311401;28;20037;-62
2021/04/13 02:57:21;;;;;;;2.67;0.68;;;;;;;;;;10309613;28;20037;-62
2021/04/13 03:02:25;;;;;;;3.17;0.52;;;;;;;;;;10282834;28;20068;-61
2021/04/13 03:07:24;;;;;;;2.88;0.68;;;;;;;;;;10279566;28;20026;-62
2021/04/13 03:12:21;;;;;;;0.38;0.38;;;;;;;;;;10273540;28;20376;-59
2021/04/13 03:17:20;;;;;;;1.55;0.45;;;;;;;;;;10259535;28;20029;-61
2021/04/13 03:22:18;;;;;;;3.83;1.00;;;;;;;;;;10308760;28;20087;-61
2021/04/13 03:27:18;;;;;;;2.92;0.57;;;;;;;;;;10320853;28;20033;-62
2021/04/13 03:32:17;;;;;;;0.65;0.65;;;;;;;;;;10318022;28;20037;-62
2021/04/13 03:37:16;;;;;;;1.10;0.63;;;;;;;;;;10315334;28;20043;-61
2021/04/13 03:42:16;;;;;;;2.05;1.05;;;;;;;;;;10318412;28;20056;-63
2021/04/13 03:47:16;;;;;;;1.23;0.50;;;;;;;;;;10317413;28;20452;-63
2021/04/13 03:52:19;;;;;;;1.08;0.50;;;;;;;;;;10316601;28;20037;-63
2021/04/13 03:57:31;;;;;;;2.30;0.73;;;;;;;;;;10316965;28;20044;-63
2021/04/13 04:02:30;;;;;;;7.68;0.70;;;;;;;;;;10288693;28;20037;-60
2021/04/13 04:07:36;;;;;;;2.55;0.77;;;;;;;;;;10315303;28;20524;-59
2021/04/13 04:12:33;;;;;;;5.95;1.15;;;;;;;;;;10322342;28;20029;-62
2021/04/13 04:17:32;;;;;;;4.10;0.67;;;;;;;;;;10321616;28;20536;-62
2021/04/13 04:22:30;;;;;;;2.90;0.60;;;;;;;;;;10325435;28;20025;-62
2021/04/13 04:27:32;;;;;;;2.67;0.75;;;;;;;;;;10269143;28;20037;-62
2021/04/13 04:32:30;;;;;;;1.58;0.75;;;;;;;;;;10271956;28;20072;-62
2021/04/13 04:37:27;;;;;;;0.60;0.40;;;;;;;;;;10268000;28;20053;-62
2021/04/13 04:42:28;;;;;;;2.90;0.47;;;;;;;;;;10308346;28;20048;-63
2021/04/13 04:47:33;;;;;;;7.25;1.00;;;;;;;;;;10282949;28;20228;-62
2021/04/13 04:52:30;;;;;;;4.05;0.68;;;;;;;;;;10278275;28;20176;-62
2021/04/13 04:57:28;;;;;;;2.07;0.93;;;;;;;;;;10280319;28;20053;-63
2021/04/13 05:02:25;;;;;;;0.30;0.30;;;;;;;;;;10277025;28;20760;-63
2021/04/13 05:07:22;;;;;;;1.37;1.27;;;;;;;;;;10271138;28;20079;-63
2021/04/13 05:12:20;;;;;;;4.03;1.53;;;;;;;;;;10278514;28;20434;-63
2021/04/13 05:17:17;;;;;;;14.53;1.07;;;;;;;;;;10255228;28;20046;-64
2021/04/13 05:22:15;;;;;;;5.67;1.57;;;;;;;;;;10265352;28;20061;-60
2021/04/13 05:27:12;;;;;;;5.27;2.43;;;;;;;;;;10269459;28;20061;-58
2021/04/13 05:32:10;;;;;;;4.93;2.43;;;;;;;;;;10257194;28;20657;-61
2021/04/13 05:37:08;;;;;;;13.40;4.40;;;;;;;;;;10277709;28;20053;-60
2021/04/13 05:42:06;;;;;;;;;;;;;;;;;;10304221;28;20491;-61
2021/04/13 05:47:03;;;;;;;19.33;6.53;;;;;;;;;;10312474;28;20317;-61
2021/04/13 05:52:02;;;;;;;8.63;4.57;;;;;;;;;;10312648;28;20038;-60
2021/04/13 05:57:00;;;;;;;10.48;4.32;;;;;;;;;;10291370;28;20533;-61
2021/04/13 06:01:58;;;;;;;13.25;5.65;;;;;;;;;;10312211;28;20063;-61
2021/04/13 06:06:56;;;;;;;15.60;5.63;;;;;;;;;;10317918;28;20585;-60
2021/04/13 06:11:55;;;;;;;14.47;4.73;;;;;;;;;;10302590;28;20033;-61
2021/04/13 06:16:52;;;;;;;3.75;3.17;;;;;;;;;;10296164;28;20453;-61
2021/04/13 06:21:51;;;;;;;10.37;3.00;;;;;;;;;;10300714;28;20083;-62
2021/04/13 06:26:48;;;;;;;5.90;2.80;;;;;;;;;;10295969;28;20233;-58
2021/04/13 06:31:46;;;;;;;11.20;3.77;;;;;;;;;;10309376;28;20040;-62
2021/04/13 06:36:43;;;;;;;5.77;2.83;;;;;;;;;;10291067;28;20053;-62
2021/04/13 06:41:50;;;;;;;4.50;2.77;;;;;;;;;;10294278;28;20063;-62
2021/04/13 06:47:02;;;;;;;7.72;2.45;;;;;;;;;;10307822;28;21430;-62
2021/04/13 06:52:09;;;;;;;9.82;3.00;;;;;;;;;;10307061;28;20036;-63
2021/04/13 06:57:16;;;;;;;5.60;1.48;;;;;;;;;;10310287;28;20490;-63
2021/04/13 07:02:20;;;;;;;5.45;2.08;;;;;;;;;;10299370;28;20037;-63
2021/04/13 07:07:30;;;;;;;4.32;1.23;;;;;;;;;;10302522;28;20422;-63
2021/04/13 07:12:40;;;;;;;3.25;1.25;;;;;;;;;;10311507;28;20175;-63
2021/04/13 07:17:45;;;;;;;4.40;0.82;;;;;;;;;;10307237;28;20426;-63
2021/04/13 07:22:45;;;;;;;6.78;0.95;;;;;;;;;;10303789;28;20049;-63
2021/04/13 07:27:45;;;;;;;2.00;0.73;;;;;;;;;;10306830;28;20032;-63
2021/04/13 07:32:43;;;;;;;6.85;0.77;;;;;;;;;;10295045;28;20186;-63
2021/04/13 07:37:42;;;;;;;7.67;1.70;;;;;;;;;;10303446;28;20135;-62
2021/04/13 07:42:48;;;;;;;2.97;0.82;;;;;;;;;;10279952;28;20526;-63
2021/04/13 07:48:04;;;;;;;17.30;1.38;;;;;;;;;;10290629;28;20028;-63
2021/04/13 07:53:06;;;;;;;6.43;0.70;;;;;;;;;;10271552;28;20076;-63
2021/04/13 07:58:03;;;;;;;5.22;1.30;;;;;;;;;;10260417;28;20049;-64
2021/04/13 08:03:21;;;;;;;2.70;0.67;;;;;;;;;;10263317;28;20034;-63
2021/04/13 08:08:21;;;;;;;7.60;1.00;;;;;;;;;;10243965;28;20133;-62
2021/04/13 08:13:27;;;;;;;10.05;1.63;;;;;;;;;;10247644;28;20076;-63
2021/04/13 08:18:34;;;;;;;9.60;1.48;;;;;;;;;;10240638;28;20132;-64
2021/04/13 08:23:36;;;;;;;9.15;1.70;;;;;;;;;;10236219;28;21266;-63
2021/04/13 08:28:36;;;;;;;5.53;1.40;;;;;;;;;;10247202;28;20042;-64
2021/04/13 08:33:37;;;;;;;4.88;1.42;;;;;;;;;;10243793;28;20045;-63
2021/04/13 08:38:44;;;;;;;7.88;1.10;;;;;;;;;;10262835;28;20041;-63
2021/04/13 08:43:55;;;;;;;11.48;2.03;;;;;;;;;;10278102;28;20044;-63
2021/04/13 08:49:05;;;;;;;10.80;2.05;;;;;;;;;;10299949;28;20756;-63
2021/04/13 08:54:09;;;;;;;3.40;1.15;;;;;;;;;;10289885;28;20333;-63
2021/04/13 08:59:07;;;;;;;10.65;1.55;;;;;;;;;;10300709;28;20119;-63
2021/04/13 09:04:12;;;;;;;5.35;1.25;;;;;;;;;;10290942;28;20514;-63
2021/04/13 09:09:29;;;;;;;9.88;1.05;;;;;;;;;;10305471;28;20439;-63
2021/04/13 09:14:40;;;;;;;9.57;1.65;;;;;;;;;;10281754;28;20640;-64
2021/04/13 09:20:01;;;;;;;5.15;0.88;;;;;;;;;;10303520;28;20033;-63
2021/04/13 09:25:21;;;;;;;4.20;0.47;;;;;;;;;;10287308;28;20036;-64
2021/04/13 09:30:18;;;;;;;5.30;1.67;;;;;;;;;;10279953;28;20047;-63
2021/04/13 09:35:35;;;;;;;6.10;1.23;;;;;;;;;;10273619;28;20042;-63
2021/04/13 09:40:44;;;;;;;6.63;1.75;;;;;;;;;;10238312;28;20168;-64
2021/04/13 09:45:46;;;;;;;7.43;1.05;;;;;;;;;;10254771;28;20060;-63
2021/04/13 09:50:46;;;;;;;2.92;0.93;;;;;;;;;;10293197;28;20066;-63
2021/04/13 09:56:03;;;;;;;5.10;1.38;;;;;;;;;;10304677;28;20248;-61
2021/04/13 10:01:00;;;;;;;4.50;0.80;;;;;;;;;;10310116;27;20721;-64
2021/04/13 10:05:59;;;;;;;10.73;1.90;;;;;;;;;;10277066;28;20053;-64
2021/04/13 10:11:15;;;;;;;8.40;1.15;;;;;;;;;;10256331;28;20050;-64
2021/04/13 10:16:15;;;;;;;4.10;0.80;;;;;;;;;;10264158;28;20038;-64
2021/04/13 10:21:20;;;;;;;3.67;0.82;;;;;;;;;;10291275;28;20503;-64
2021/04/13 10:26:17;;;;;;;7.72;0.98;;;;;;;;;;10257547;28;20410;-62
2021/04/13 10:31:15;;;;;;;4.40;1.10;;;;;;;;;;10250472;28;20041;-66
2021/04/13 10:36:18;;;;;;;4.77;1.00;;;;;;;;;;10283252;28;20083;-62
2021/04/13 10:41:25;;;;;;;5.72;0.90;;;;;;;;;;10280023;28;20058;-61
2021/04/13 10:46:25;;;;;;;7.43;1.40;;;;;;;;;;10278793;28;20422;-60
2021/04/13 10:51:34;;;;;;;2.88;0.68;;;;;;;;;;10282308;28;20188;-61
2021/04/13 10:57:00;;;;;;;6.57;1.15;;;;;;;;;;10284527;28;20079;-62
2021/04/13 11:02:16;;;;;;;3.05;0.77;;;;;;;;;;10286378;28;20087;-63
2021/04/13 11:07:23;;;;;;;3.53;1.00;;;;;;;;;;10300474;28;20033;-63
2021/04/13 11:12:38;;;;;;;1.50;0.82;;;;;;;;;;10290178;28;20109;-64
2021/04/13 11:17:48;;;;;;;2.63;0.75;;;;;;;;;;10286949;28;20571;-62
2021/04/13 11:23:04;;;;;;;8.77;1.35;;;;;;;;;;10284149;28;20037;-60
2021/04/13 11:28:01;;;;;;;2.80;0.60;;;;;;;;;;10280315;28;20184;-61
2021/04/13 11:33:05;;;;;;;2.00;0.33;;;;;;;;;;10302435;28;20064;-64
2021/04/13 11:38:05;;;;;;;3.85;0.82;;;;;;;;;;10306965;28;20036;-63
2021/04/13 11:43:04;;;;;;;2.00;0.43;;;;;;;;;;10252680;28;20440;-63
2021/04/13 11:48:04;;;;;;;6.35;1.02;;;;;;;;;;10305879;28;20041;-64
2021/04/13 11:53:07;;;;;;;5.10;0.80;;;;;;;;;;10284474;28;20124;-64
2021/04/13 11:58:05;;;;;;;4.18;1.15;;;;;;;;;;10290725;28;20576;-64
2021/04/13 12:03:08;;;;;;;7.97;0.75;;;;;;;;;;10301072;28;20075;-64
2021/04/13 12:08:06;;;;;;;5.50;0.95;;;;;;;;;;10308782;28;20102;-64
2021/04/13 12:13:07;;;;;;;7.30;1.38;;;;;;;;;;10288003;28;20111;-63
2021/04/13 12:18:23;;;;;;;4.05;1.38;;;;;;;;;;10304105;28;20037;-61
2021/04/13 12:23:21;;;;;;;2.40;0.40;;;;;;;;;;10298736;28;20041;-61
2021/04/13 12:28:38;;;;;;;4.30;1.20;;;;;;;;;;10306555;28;20044;-62
2021/04/13 12:33:36;;;;;;;2.75;0.85;;;;;;;;;;10303665;28;20038;-63
2021/04/13 12:38:42;;;;;;;7.60;1.20;;;;;;;;;;10271293;28;20495;-64
2021/04/13 12:43:48;;;;;;;3.30;0.85;;;;;;;;;;10273340;28;20113;-64
2021/04/13 12:48:47;;;;;;;2.28;0.70;;;;;;;;;;10298541;28;20174;-63
2021/04/13 12:53:45;;;;;;;2.83;0.35;;;;;;;;;;10284540;28;20419;-64
2021/04/13 12:58:43;;;;;;;1.83;0.77;;;;;;;;;;10296449;28;20045;-64
2021/04/13 13:03:40;;;;;;;1.90;0.40;;;;;;;;;;10279683;28;20065;-63
2021/04/13 13:08:38;;;;;;;1.03;0.43;;;;;;;;;;10297770;28;20042;-64
2021/04/13 13:13:37;;;;;;;4.17;1.20;;;;;;;;;;10304995;28;20045;-64
2021/04/13 13:18:42;;;;;;;6.47;0.65;;;;;;;;;;10304563;28;20048;-64
2021/04/13 13:23:44;;;;;;;2.08;0.80;;;;;;;;;;10298395;28;20140;-64
2021/04/13 13:28:44;;;;;;;5.32;1.38;;;;;;;;;;10305211;28;20609;-63
2021/04/13 13:33:43;;;;;;;1.38;0.65;;;;;;;;;;10308302;28;20924;-62
2021/04/13 13:38:41;;;;;;;6.00;0.95;;;;;;;;;;10300339;28;20056;-62
2021/04/13 13:43:39;;;;;;;0.52;0.40;;;;;;;;;;10301729;28;20042;-63
2021/04/13 13:48:36;;;;;;;3.93;0.90;;;;;;;;;;10312095;28;20280;-62
2021/04/13 13:53:44;;;;;;;4.67;0.40;;;;;;;;;;10305286;28;20045;-62
2021/04/13 13:58:42;;;;;;;5.45;0.75;;;;;;;;;;10306579;28;20032;-62
2021/04/13 14:03:39;;;;;;;2.03;0.97;;;;;;;;;;10301988;28;20044;-62
2021/04/13 14:08:42;;;;;;;2.37;0.50;;;;;;;;;;10305611;28;20032;-63
2021/04/13 14:13:41;;;;;;;4.30;0.60;;;;;;;;;;10302257;28;20041;-63
2021/04/13 14:18:49;;;;;;;9.80;1.30;;;;;;;;;;10303728;28;20041;-63
2021/04/13 14:23:48;;;;;;;2.17;0.85;;;;;;;;;;10294182;28;20171;-64
2021/04/13 14:28:46;;;;;;;2.05;0.82;;;;;;;;;;10283074;28;20041;-62
2021/04/13 14:33:43;;;;;;;2.93;0.37;;;;;;;;;;10298953;28;20550;-63
2021/04/13 14:38:40;;;;;;;3.30;0.47;;;;;;;;;;10291809;28;20425;-62
2021/04/13 14:43:38;;;;;;;1.63;0.50;;;;;;;;;;10296933;28;20068;-63
2021/04/13 14:48:35;;;;;;;0.73;0.60;;;;;;;;;;10300794;28;20503;-63
2021/04/13 14:53:33;;;;;;;2.87;0.60;;;;;;;;;;10290306;28;20049;-63
2021/04/13 14:58:30;;;;;;;4.33;0.80;;;;;;;;;;10275271;28;20534;-63
2021/04/13 15:03:28;;;;;;;2.80;0.80;;;;;;;;;;10283675;28;20045;-63
2021/04/13 15:08:26;;;;;;;3.37;1.10;;;;;;;;;;10277129;28;20036;-63
2021/04/13 15:13:24;;;;;;;2.78;1.13;;;;;;;;;;10275198;28;20430;-63
2021/04/13 15:18:21;;;;;;;6.75;0.60;;;;;;;;;;10277700;28;20025;-65
2021/04/13 15:23:19;;;;;;;2.57;0.70;;;;;;;;;;10273681;28;20037;-64
2021/04/13 15:28:17;;;;;;;3.72;0.70;;;;;;;;;;10275592;28;20041;-63
2021/04/13 15:33:22;;;;;;;6.37;1.10;;;;;;;;;;10272059;28;20490;-63
2021/04/13 15:38:19;;;;;;;2.65;0.82;;;;;;;;;;10280685;28;20098;-61
2021/04/13 15:43:22;;;;;;;1.53;0.60;;;;;;;;;;10286514;28;20094;-60
2021/04/13 15:48:23;;;;;;;3.47;0.68;;;;;;;;;;10275393;28;20813;-62
2021/04/13 15:53:24;;;;;;;2.47;0.50;;;;;;;;;;10284446;28;20038;-63
2021/04/13 15:58:23;;;;;;;2.55;0.65;;;;;;;;;;10283300;28;20035;-62
2021/04/13 16:03:20;;;;;;;1.75;0.70;;;;;;;;;;10281407;28;20473;-63
2021/04/13 16:08:17;;;;;;;1.80;0.70;;;;;;;;;;10296111;28;20037;-64
2021/04/13 16:13:15;;;;;;;6.03;1.00;;;;;;;;;;10276827;28;20037;-63
2021/04/13 16:18:12;;;;;;;0.97;0.50;;;;;;;;;;10277520;28;20564;-61
2021/04/13 16:23:10;;;;;;;3.23;0.97;;;;;;;;;;10286007;27;20727;-61
2021/04/13 16:28:08;;;;;;;1.83;0.70;;;;;;;;;;10285254;28;20063;-63
2021/04/13 16:33:06;;;;;;;1.02;0.40;;;;;;;;;;10287980;28;20609;-64
2021/04/13 16:38:04;;;;;;;2.23;0.30;;;;;;;;;;10261806;28;20041;-64
2021/04/13 16:43:09;;;;;;;2.03;0.40;;;;;;;;;;10251615;28;20160;-63
2021/04/13 16:48:11;;;;;;;2.15;0.50;;;;;;;;;;10251410;28;20292;-65
2021/04/13 16:53:10;;;;;;;3.08;0.75;;;;;;;;;;10240153;28;20486;-63
2021/04/13 16:58:08;;;;;;;2.47;0.85;;;;;;;;;;10245888;28;20137;-65
2021/04/13 17:03:14;;;;;;;2.10;0.50;;;;;;;;;;10249769;28;20037;-62
2021/04/13 17:08:32;;;;;;;1.20;0.40;;;;;;;;;;10250828;28;20041;-63
2021/04/13 17:13:43;;;;;;;3.35;0.88;;;;;;;;;;10246202;28;20087;-63
2021/04/13 17:18:45;;;;;;;1.65;0.60;;;;;;;;;;10291862;28;20351;-65
2021/04/13 17:23:44;;;;;;;3.17;0.80;;;;;;;;;;10287936;28;21659;-62
2021/04/13 17:28:44;;;;;;;2.30;0.50;;;;;;;;;;10281488;28;20559;-62
2021/04/13 17:33:43;;;;;;;3.55;0.50;;;;;;;;;;10274329;28;20083;-64
2021/04/13 17:38:46;;;;;;;2.05;0.45;;;;;;;;;;10288411;28;20095;-62
2021/04/13 17:43:47;;;;;;;1.63;0.40;;;;;;;;;;10297534;28;21502;-62
2021/04/13 17:48:46;;;;;;;5.03;0.50;;;;;;;;;;10281654;28;20038;-62
2021/04/13 17:53:47;;;;;;;5.18;0.90;;;;;;;;;;10293054;28;20579;-62
2021/04/13 17:58:44;;;;;;;21.88;5.70;;;;;;;;;;10291358;28;20655;-62
2021/04/13 18:03:42;;;;;;;13.47;7.00;;;;;;;;;;10281168;28;20041;-62
2021/04/13 18:08:49;;;;;;;42.55;11.15;;;;;;;;;;10292515;28;20414;-62
2021/04/13 18:13:48;;;;;;;12.85;3.97;;;;;;;;;;10298410;28;20037;-61
2021/04/13 18:18:48;;;;;;;14.40;3.83;;;;;;;;;;10300404;28;20384;-62
2021/04/13 18:23:47;;;;;;;14.27;2.47;;;;;;;;;;10298514;28;20128;-62
2021/04/13 18:28:49;;;;;;;5.22;1.50;;;;;;;;;;10299178;28;20040;-62
2021/04/13 18:33:53;;;;;;;2.20;0.50;;;;;;;;;;10301982;28;20048;-63
2021/04/13 18:38:58;;;;;;;3.05;0.88;;;;;;;;;;10295765;28;20053;-61
2021/04/13 18:44:07;;;;;;;5.88;0.30;;;;;;;;;;10302048;28;20103;-64
2021/04/13 18:49:07;;;;;;;1.65;0.50;;;;;;;;;;10291986;27;20262;-63
2021/04/13 18:54:05;;;;;;;8.07;0.85;;;;;;;;;;10300716;28;20575;-62
2021/04/13 18:59:05;;;;;;;3.97;0.50;;;;;;;;;;10292740;28;20041;-63
2021/04/13 19:04:03;;;;;;;3.40;0.70;;;;;;;;;;10287101;28;20061;-63
2021/04/13 19:09:03;;;;;;;5.70;0.50;;;;;;;;;;10254743;28;20041;-64
2021/04/13 19:14:05;;;;;;;1.38;0.63;;;;;;;;;;10291888;28;20438;-64
2021/04/13 19:19:06;;;;;;;0.17;0.17;;;;;;;;;;10289980;28;20249;-63
2021/04/13 19:24:09;;;;;;;1.25;0.55;;;;;;;;;;10286906;28;20255;-64
2021/04/13 19:29:08;;;;;;;2.83;0.55;;;;;;;;;;10286117;28;20444;-63
2021/04/13 19:34:33;;;;;;;0.55;0.38;;;;;;;;;;10295289;28;20045;-63
2021/04/13 19:39:31;;;;;;;6.03;1.58;;;;;;;;;;10282225;28;20045;-63
2021/04/13 19:44:34;;;;;;;0.70;0.47;;;;;;;;;;10290758;28;20036;-62
2021/04/13 19:49:33;;;;;;;0.57;0.52;;;;;;;;;;10279225;28;20288;-63
2021/04/13 19:54:33;;;;;;;0.52;0.22;;;;;;;;;;10261182;28;20041;-61
2021/04/13 19:59:32;;;;;;;2.47;0.70;;;;;;;;;;10248188;28;20045;-63
2021/04/13 20:04:32;;;;;;;4.10;0.50;;;;;;;;;;10250973;28;20410;-62
2021/04/13 20:09:29;;;;;;;4.57;0.70;;;;;;;;;;10258314;28;20371;-63
2021/04/13 20:14:34;;;;;;;3.43;1.00;;;;;;;;;;10269427;28;20045;-62
2021/04/13 20:19:33;;;;;;;3.65;1.25;;;;;;;;;;10257335;28;20048;-61
2021/04/13 20:24:34;;;;;;;0.93;0.50;;;;;;;;;;10271256;28;20041;-64
2021/04/13 20:29:37;;;;;;;3.85;0.65;;;;;;;;;;10288373;28;20437;-65
2021/04/13 20:39:41;;;;;;;6.43;0.52;;;;;;;;;;10294315;28;20041;-65
2021/04/13 20:44:39;;;;;;;3.13;0.73;;;;;;;;;;10292959;28;20037;-64
2021/04/13 20:49:42;;;;;;;5.43;0.93;;;;;;;;;;10293522;28;20041;-65
2021/04/13 20:54:40;;;;;;;0.55;0.20;;;;;;;;;;10300584;28;20379;-65
2021/04/13 20:59:44;;;;;;;7.53;1.02;;;;;;;;;;10295110;28;21598;-65
2021/04/13 21:04:49;;;;;;;2.20;0.30;;;;;;;;;;10303288;28;20129;-62
2021/04/13 21:09:52;;;;;;;0.43;0.43;;;;;;;;;;10291630;28;20099;-62
2021/04/13 21:15:08;;;;;;;1.20;0.82;;;;;;;;;;10304484;28;20428;-64
2021/04/13 21:20:06;;;;;;;1.58;0.68;;;;;;;;;;10293157;28;20174;-65
2021/04/13 21:25:06;;;;;;;2.30;1.02;;;;;;;;;;10299263;28;20165;-65
2021/04/13 21:30:06;;;;;;;3.42;0.70;;;;;;;;;;10313713;28;20115;-64
2021/04/13 21:35:21;;;;;;;2.65;0.70;;;;;;;;;;10293896;28;20048;-65
2021/04/13 21:40:22;;;;;;;3.10;0.68;;;;;;;;;;10272912;28;20050;-65
2021/04/13 21:45:22;;;;;;;5.32;1.08;;;;;;;;;;10250817;28;20041;-65
2021/04/13 21:50:23;;;;;;;1.20;1.02;;;;;;;;;;10254291;28;20118;-65
2021/04/13 21:55:22;;;;;;;3.65;0.95;;;;;;;;;;10270435;28;20090;-64
2021/04/13 22:00:20;;;;;;;4.35;0.93;;;;;;;;;;10269428;28;20047;-61
2021/04/13 22:05:25;;;;;;;0.53;0.33;;;;;;;;;;10247952;28;21190;-62
2021/04/13 22:10:28;;;;;;;2.67;0.55;;;;;;;;;;10250376;28;20037;-63
2021/04/13 22:15:27;;;;;;;4.38;0.60;;;;;;;;;;10247900;28;20507;-65
2021/04/13 22:20:36;;;;;;;0.28;0.28;;;;;;;;;;10253220;28;20045;-63
2021/04/13 22:25:33;;;;;;;3.17;1.00;;;;;;;;;;10244782;28;20045;-65
2021/04/13 22:30:33;;;;;;;3.50;1.53;;;;;;;;;;10249416;28;20042;-65
2021/04/13 22:35:36;;;;;;;2.72;1.05;;;;;;;;;;10243893;28;20045;-65
2021/04/13 22:40:33;;;;;;;3.47;0.70;;;;;;;;;;10250555;28;20045;-65
2021/04/13 22:45:31;;;;;;;3.30;0.87;;;;;;;;;;10246169;28;20376;-65
2021/04/13 22:50:28;;;;;;;2.87;0.77;;;;;;;;;;10253339;28;20034;-62
2021/04/13 22:55:40;;;;;;;3.13;0.53;;;;;;;;;;10251118;28;20410;-62
2021/04/13 23:00:47;;;;;;;0.95;0.35;;;;;;;;;;10252290;28;20049;-64
2021/04/13 23:05:45;;;;;;;4.60;1.40;;;;;;;;;;10260277;28;20044;-64
2021/04/13 23:10:42;;;;;;;4.40;1.08;;;;;;;;;;10261056;28;20400;-64
2021/04/13 23:15:40;;;;;;;4.60;1.10;;;;;;;;;;10259965;28;20371;-65
2021/04/13 23:20:37;;;;;;;1.40;0.57;;;;;;;;;;10261634;28;20199;-64
2021/04/13 23:25:35;;;;;;;1.20;0.30;;;;;;;;;;10257959;28;20041;-67
2021/04/13 23:30:32;;;;;;;8.20;2.63;;;;;;;;;;10255637;28;20578;-67
2021/04/13 23:35:30;;;;;;;1.63;1.03;;;;;;;;;;10258245;28;20034;-66
2021/04/13 23:40:27;;;;;;;0.27;0.27;;;;;;;;;;10264481;28;21227;-66
2021/04/13 23:45:25;;;;;;;0.77;0.77;;;;;;;;;;10253382;28;20639;-66
2021/04/13 23:50:22;;;;;;;6.53;1.20;;;;;;;;;;10252268;28;20033;-67
2021/04/13 23:55:20;;;;;;;2.43;1.27;;;;;;;;;;10262342;28;20154;-66
